createdAt,value
2023-03-23T06:01:13.732Z,0.50
2023-03-23T06:05:13.699Z,0.50
2023-03-23T06:09:13.683Z,0.34
2023-03-23T06:13:13.620Z,0.34
2023-03-23T06:17:13.618Z,0.34
2023-03-23T06:21:18.518Z,0.50
2023-03-23T06:25:14.506Z,0.43
2023-03-23T06:29:13.504Z,0.50
2023-03-23T06:33:13.469Z,0.53
2023-03-23T06:37:13.388Z,0.52
2023-03-23T06:41:13.391Z,0.51
2023-03-23T06:45:13.326Z,0.51
2023-03-23T06:49:13.297Z,0.52
2023-03-23T06:53:13.270Z,0.51
2023-03-23T06:57:13.332Z,0.53
2023-03-23T07:01:13.519Z,0.51
2023-03-23T07:05:13.469Z,0.50
2023-03-23T07:09:13.421Z,0.54
2023-03-23T07:13:13.365Z,0.51
2023-03-23T07:17:13.352Z,0.51
2023-03-23T07:21:13.303Z,0.52
2023-03-23T07:25:13.257Z,0.51
2023-03-23T07:29:13.254Z,0.53
2023-03-23T07:33:13.178Z,0.51
2023-03-23T07:37:13.143Z,0.51
2023-03-23T07:41:13.106Z,0.56
2023-03-23T07:45:13.095Z,0.55
2023-03-23T07:49:13.020Z,0.53
2023-03-23T07:53:13.001Z,0.54
2023-03-23T07:57:13.058Z,0.56
2023-03-23T08:01:12.918Z,0.55
2023-03-23T08:05:12.909Z,0.52
2023-03-23T08:09:12.854Z,0.51
2023-03-23T08:13:12.938Z,0.52
2023-03-23T08:17:12.753Z,0.57
2023-03-23T08:21:12.717Z,0.55
2023-03-23T08:25:12.647Z,0.63
2023-03-23T08:29:12.664Z,0.58
2023-03-23T08:33:12.601Z,0.56
2023-03-23T08:37:12.562Z,0.56
2023-03-23T08:41:12.560Z,0.59
2023-03-23T08:45:12.475Z,0.59
2023-03-23T08:49:12.445Z,0.54
2023-03-23T08:53:12.397Z,0.55
2023-03-23T08:57:12.367Z,0.55
2023-03-23T09:01:12.331Z,0.54
2023-03-23T09:05:12.271Z,0.55
2023-03-23T09:09:12.220Z,0.56
2023-03-23T09:13:12.217Z,0.59
2023-03-23T09:17:12.150Z,0.60
2023-03-23T09:21:19.316Z,0.65
2023-03-23T09:25:13.455Z,0.64
2023-03-23T09:29:12.137Z,0.67
2023-03-23T09:33:12.037Z,0.68
2023-03-23T09:37:11.980Z,0.52
2023-03-23T09:41:12.071Z,0.53
2023-03-23T09:45:12.053Z,0.57
2023-03-23T09:49:12.072Z,0.58
2023-03-23T09:53:12.031Z,0.57
2023-03-23T09:57:12.077Z,0.51
2023-03-23T10:01:12.059Z,0.61
2023-03-23T10:05:12.102Z,0.59
2023-03-23T10:09:12.138Z,0.64
2023-03-23T10:13:12.135Z,0.65
2023-03-23T10:17:12.155Z,0.65
2023-03-23T10:21:12.114Z,0.69
2023-03-23T10:25:12.126Z,0.71
2023-03-23T10:29:12.142Z,0.75
2023-03-23T10:33:12.201Z,0.50
2023-03-23T10:37:12.332Z,0.76
2023-03-23T10:41:12.483Z,0.77
2023-03-23T10:45:12.471Z,0.76
2023-03-23T10:49:12.478Z,0.71
2023-03-23T10:53:12.500Z,0.72
2023-03-23T10:57:12.575Z,0.67
2023-03-23T11:01:12.679Z,0.69
2023-03-23T11:05:20.037Z,0.64
2023-03-23T11:09:13.693Z,0.64
2023-03-23T11:13:12.622Z,0.71
2023-03-23T11:17:15.874Z,0.66
2023-03-23T11:21:12.548Z,0.67
2023-03-23T11:25:14.076Z,0.69
2023-03-23T11:29:12.455Z,0.73
2023-03-23T11:33:12.394Z,0.75
2023-03-23T11:37:12.403Z,0.81
2023-03-23T11:41:12.330Z,0.88
2023-03-23T11:45:12.289Z,0.82
2023-03-23T11:49:23.237Z,0.75
2023-03-23T11:53:13.252Z,0.80
2023-03-23T11:57:12.208Z,0.80
2023-03-23T12:01:12.130Z,0.86
2023-03-23T12:05:12.093Z,0.82
2023-03-23T12:09:12.080Z,0.86
2023-03-23T12:13:16.024Z,0.95
2023-03-23T12:17:12.962Z,0.99
2023-03-23T12:21:11.935Z,0.92
2023-03-23T12:25:12.107Z,0.93
2023-03-23T12:29:12.168Z,0.98
2023-03-23T12:33:12.152Z,0.88
2023-03-23T12:37:12.176Z,0.68
2023-03-23T12:41:12.231Z,0.76
2023-03-23T12:45:12.340Z,0.61
2023-03-23T12:49:12.453Z,0.57
2023-03-23T12:53:12.576Z,0.62
2023-03-23T12:57:12.693Z,0.84
2023-03-23T13:01:12.670Z,0.96
2023-03-23T13:05:12.681Z,0.94
2023-03-23T13:09:12.722Z,0.92
2023-03-23T13:13:12.766Z,0.94
2023-03-23T13:17:13.703Z,0.86
2023-03-23T13:21:12.674Z,1.01
2023-03-23T13:25:12.706Z,0.96
2023-03-23T13:29:12.625Z,0.92
2023-03-23T13:33:12.587Z,0.97
2023-03-23T13:37:12.569Z,1.02
2023-03-23T13:41:12.547Z,0.89
2023-03-23T13:45:12.489Z,0.91
2023-03-23T13:49:16.597Z,1.00
2023-03-23T13:53:12.422Z,1.32
2023-03-23T13:57:12.380Z,1.07
2023-03-23T14:01:12.337Z,1.04
2023-03-23T14:05:12.296Z,1.10
2023-03-23T14:09:12.254Z,0.94
2023-03-23T14:13:12.437Z,1.04
2023-03-23T14:17:12.677Z,0.96
2023-03-23T14:21:12.606Z,1.09
2023-03-23T14:25:12.576Z,1.13
2023-03-23T14:29:12.535Z,1.04
2023-03-23T14:33:12.496Z,1.13
2023-03-23T14:37:12.452Z,1.15
2023-03-23T14:41:12.409Z,1.19
2023-03-23T14:45:12.380Z,1.08
2023-03-23T14:49:12.333Z,1.09
2023-03-23T14:53:12.325Z,1.04
2023-03-23T14:57:12.295Z,1.10
2023-03-23T15:01:12.232Z,1.14
2023-03-23T15:05:12.166Z,1.37
2023-03-23T15:09:12.175Z,3.82
2023-03-23T15:13:12.108Z,2.51
2023-03-23T15:17:12.082Z,2.59
2023-03-23T15:21:12.041Z,4.52
2023-03-23T15:25:12.004Z,4.18
2023-03-23T15:29:11.976Z,4.06
2023-03-23T15:33:13.502Z,4.05
2023-03-23T15:37:20.227Z,4.23
2023-03-23T15:41:12.886Z,4.12
2023-03-23T15:45:11.844Z,3.93
2023-03-23T15:49:11.999Z,3.76
2023-03-23T15:53:11.910Z,3.54
2023-03-23T15:57:11.911Z,3.38
2023-03-23T16:01:11.918Z,3.32
2023-03-23T16:05:11.800Z,3.12
2023-03-23T16:09:11.814Z,3.02
2023-03-23T16:13:11.744Z,2.90
2023-03-23T16:17:11.723Z,2.82
2023-03-23T16:21:11.665Z,2.60
2023-03-23T16:25:11.625Z,2.59
2023-03-23T16:29:18.873Z,2.73
2023-03-23T16:33:12.627Z,3.04
2023-03-23T16:37:11.581Z,3.03
2023-03-23T16:41:11.747Z,3.09
2023-03-23T16:45:11.697Z,3.35
2023-03-23T16:49:11.668Z,3.03
2023-03-23T16:53:11.639Z,2.89
2023-03-23T16:57:11.664Z,2.75
2023-03-23T17:01:11.603Z,2.58
2023-03-23T17:05:11.530Z,2.33
2023-03-23T17:09:11.476Z,2.11
2023-03-23T17:13:11.833Z,2.06
2023-03-23T17:17:11.435Z,2.05
2023-03-23T17:21:11.357Z,1.94
2023-03-23T17:25:11.352Z,1.90
2023-03-23T17:29:11.457Z,1.84
2023-03-23T17:33:11.570Z,1.89
2023-03-23T17:37:11.604Z,1.91
2023-03-23T17:41:11.793Z,1.99
2023-03-23T17:45:11.986Z,1.99
2023-03-23T17:49:12.034Z,1.87
2023-03-23T17:53:12.182Z,1.86
2023-03-23T17:57:12.289Z,1.98
